Aérodrome :
LOGIN :

S'inscrire | Disclaimer

   EN    FR    IT 

 










Légende :    VFR   VFR Marginal   IFR   IFR Intensif   IFR Très Intensif
Visi : 
Plafond : 
>= 8 km
>= 3000ft
5 à 8 km
1000 à 3000 ft
1500m à 5 km
500 à 1000 ft
800 à 1500m
200 à 500 ft
< 800m
< 200 ft
Symboles :   Orages  Brouillard  Fortes neiges  Fortes précipitations  Vent > 20 kt
SIGMETs :   Divers  Orages  Givrage  Turbulence  Onde Orograph.  Cendres Volcan.







- Altitude de l'aérodrome : 1649 ft
- Code IATA : HHN


EDFH - Frankfurt-Hahn Rhineland-Palatinate

DERNIER METAR :
  • 300250Z 12006KT CAVOK 04/M02 Q1014

METARs EXPIRÉS :
  • 300220Z 13005KT CAVOK 03/M02 Q1014
  • 300150Z 12005KT CAVOK 04/M02 Q1014
  • 300120Z 12005KT CAVOK 04/M02 Q1014
  • 300050Z 11005KT CAVOK 05/M02 Q1014
  • 300020Z 11007KT CAVOK 05/M02 Q1014

TAF TAF EDFH
Valide du 30 à 00h jusqu'au 01 à 00h UTC


292300Z 3000/3024 13009KT CAVOK
BECMG 3006/3009 13014KT
TEMPO 3009/3018 13015G25KT
Pas de NOTAMs connus pour ce terrain.



MET'MAP, la Météo Aéronautique d'un coup d'oeil ! - Copyright ORBIFLY Décembre 2007 - Disclaimer

ORBIFLY MET'MAP TEAM :

Programmation & Développement : Alexandra Zaïnal
Conception & Développement : Baudouin d'Aumeries
Co-Programmation & Développement : Marc-Olivier Méhu
Soutien technique & logistique : Manuel Goepfert

Contact : metmap@orbifly.com




SOURCES & CREDITS :

   NOAA